createdAt,value
2023-05-10T00:00:52.529Z,981.9
2023-05-10T00:06:11.991Z,981.9
2023-05-10T00:16:50.560Z,981.9
2023-05-10T00:22:10.188Z,981.8
2023-05-10T00:32:48.431Z,981.8
2023-05-10T00:43:26.703Z,981.8
2023-05-10T00:48:45.497Z,981.9
2023-05-10T00:59:23.387Z,981.8
2023-05-10T01:04:42.455Z,981.9
2023-05-10T01:10:01.157Z,981.8
2023-05-10T01:15:20.485Z,981.9
2023-05-10T01:25:59.460Z,981.9
2023-05-10T01:31:18.288Z,982
2023-05-10T01:41:57.430Z,982
2023-05-10T01:47:17.217Z,982
2023-05-10T01:57:56.380Z,982.1
2023-05-10T02:08:34.113Z,982.2
2023-05-10T02:13:53.826Z,982.2
2023-05-10T02:24:31.855Z,982.2
2023-05-10T02:29:51.315Z,982.4
2023-05-10T02:40:29.553Z,982.4
2023-05-10T02:56:27.832Z,982.4
2023-05-10T03:02:10.988Z,982.4
2023-05-10T03:23:29.172Z,982.6
2023-05-10T03:34:08.171Z,982.7
2023-05-10T03:39:27.037Z,982.8
2023-05-10T03:50:04.993Z,983
2023-05-10T03:55:24.047Z,983
2023-05-10T04:06:02.995Z,983.1
2023-05-10T04:16:41.308Z,983.2
2023-05-10T04:32:39.345Z,983.3
2023-05-10T04:37:58.211Z,983.2
2023-05-10T04:43:16.861Z,983.2
2023-05-10T04:48:35.839Z,983.3
2023-05-10T04:59:14.764Z,983.3
2023-05-10T05:04:33.509Z,983.4
2023-05-10T05:15:11.671Z,983.4
2023-05-10T05:20:30.472Z,983.5
2023-05-10T05:31:09.645Z,983.5
2023-05-10T05:47:07.914Z,983.6
2023-05-10T05:57:45.167Z,983.7
2023-05-10T06:03:04.172Z,983.7
2023-05-10T06:13:43.383Z,983.8
2023-05-10T06:19:02.935Z,983.8
2023-05-10T06:29:41.148Z,983.9
2023-05-10T06:40:20.412Z,984
2023-05-10T06:45:39.751Z,983.8
2023-05-10T06:56:18.716Z,983.9
2023-05-10T07:01:37.754Z,984
2023-05-10T07:12:16.218Z,984
2023-05-10T07:22:56.365Z,984
2023-05-10T07:28:15.387Z,984
2023-05-10T07:38:52.587Z,984
2023-05-10T07:44:12.197Z,984
2023-05-10T07:54:50.636Z,984.1
2023-05-10T08:05:28.930Z,984.2
2023-05-10T08:10:48.285Z,984.3
2023-05-10T08:21:26.390Z,984.3
2023-05-10T08:26:45.948Z,984.4
2023-05-10T08:37:24.639Z,984.6
2023-05-10T08:42:44.033Z,984.6
2023-05-10T08:48:03.198Z,984.5
2023-05-10T08:53:22.666Z,984.6
2023-05-10T09:04:01.024Z,984.7
2023-05-10T09:09:20.152Z,984.8
2023-05-10T09:19:58.911Z,984.9
2023-05-10T09:25:18.143Z,984.8
2023-05-10T09:35:55.429Z,984.7
2023-05-10T09:41:14.748Z,984.8
2023-05-10T09:51:53.986Z,984.8
2023-05-10T09:57:12.964Z,984.8
2023-05-10T10:02:32.179Z,984.9
2023-05-10T10:13:09.755Z,984.9
2023-05-10T10:18:28.829Z,984.9
2023-05-10T10:23:48.170Z,984.8
2023-05-10T10:29:06.764Z,984.8
2023-05-10T10:39:45.354Z,984.8
2023-05-10T10:45:04.844Z,984.8
2023-05-10T10:55:43.438Z,984.7
2023-05-10T11:01:02.277Z,984.8
2023-05-10T11:11:40.798Z,984.6
2023-05-10T11:22:19.795Z,984.7
2023-05-10T11:27:38.589Z,984.8
2023-05-10T11:38:16.654Z,984.9
2023-05-10T11:43:35.776Z,984.9
2023-05-10T11:54:14.135Z,984.9
2023-05-10T11:59:33.206Z,984.9
2023-05-10T12:10:10.948Z,984.9
2023-05-10T12:20:49.022Z,985.1
2023-05-10T12:26:08.524Z,985.1
2023-05-10T12:36:47.436Z,985.3
2023-05-10T12:42:06.678Z,985.2
2023-05-10T12:52:44.561Z,985.3
2023-05-10T13:03:23.492Z,985.3
2023-05-10T13:08:42.990Z,985.3
2023-05-10T13:19:21.836Z,985.5
2023-05-10T13:24:40.798Z,985.6
2023-05-10T13:35:18.965Z,985.6
2023-05-10T13:45:57.723Z,985.6
2023-05-10T13:51:17.020Z,985.6
2023-05-10T14:01:54.788Z,985.6
2023-05-10T14:07:13.598Z,985.7
2023-05-10T14:17:52.091Z,985.7
2023-05-10T14:23:12.140Z,985.7
2023-05-10T14:33:50.389Z,985.7
2023-05-10T14:44:29.566Z,985.7
2023-05-10T14:49:49.530Z,985.6
2023-05-10T15:00:27.113Z,985.7
2023-05-10T15:11:04.683Z,985.7
2023-05-10T15:16:24.008Z,985.6
2023-05-10T15:27:02.556Z,985.7
2023-05-10T15:32:21.403Z,985.7
2023-05-10T15:43:01.117Z,985.7
2023-05-10T15:48:19.407Z,985.7
2023-05-10T15:58:57.681Z,985.7
2023-05-10T16:09:35.979Z,985.8
2023-05-10T16:14:55.003Z,985.8
2023-05-10T16:25:33.494Z,985.7
2023-05-10T16:30:52.279Z,985.8
2023-05-10T16:46:50.165Z,985.8
2023-05-10T16:52:17.604Z,985.8
2023-05-10T17:02:46.803Z,985.8
2023-05-10T17:08:05.709Z,985.8
2023-05-10T17:18:43.730Z,986
2023-05-10T17:24:02.372Z,986
2023-05-10T17:34:40.326Z,986
2023-05-10T17:45:20.159Z,986.1
2023-05-10T17:50:38.997Z,986.2
2023-05-10T18:01:18.166Z,986.2
2023-05-10T18:06:37.077Z,986.3
2023-05-10T18:17:16.151Z,986.3
2023-05-10T18:33:13.698Z,986.4
2023-05-10T18:43:51.203Z,986.4
2023-05-10T18:49:10.355Z,986.4
2023-05-10T18:59:48.273Z,986.5
2023-05-10T19:10:26.508Z,986.6
2023-05-10T19:15:46.735Z,986.6
2023-05-10T19:26:24.247Z,986.7
2023-05-10T19:31:43.910Z,986.7
2023-05-10T19:42:21.356Z,986.8
2023-05-10T19:47:40.365Z,986.8
2023-05-10T19:58:19.071Z,986.8
2023-05-10T20:03:38.180Z,986.9
2023-05-10T20:08:56.823Z,986.9
2023-05-10T20:14:15.615Z,986.9
2023-05-10T20:24:55.804Z,987
2023-05-10T20:30:13.137Z,987
2023-05-10T20:40:51.512Z,987
2023-05-10T20:46:20.913Z,987.1
2023-05-10T20:52:13.338Z,987
2023-05-10T20:57:24.269Z,987
2023-05-10T21:02:52.299Z,987
2023-05-10T21:13:30.556Z,987
2023-05-10T21:18:41.600Z,987
2023-05-10T21:29:19.637Z,986.9
2023-05-10T21:34:46.749Z,986.9
2023-05-10T21:39:58.171Z,987
2023-05-10T21:45:25.299Z,986.9
2023-05-10T21:56:03.477Z,987
2023-05-10T22:01:14.780Z,987
2023-05-10T22:11:52.979Z,986.9
2023-05-10T22:27:51.216Z,986.9
2023-05-10T22:38:29.996Z,986.9
2023-05-10T22:43:58.140Z,987
2023-05-10T22:54:36.340Z,986.9
2023-05-10T22:59:47.161Z,986.9
2023-05-10T23:10:25.325Z,987
2023-05-10T23:21:03.821Z,987
2023-05-10T23:31:42.163Z,987
2023-05-10T23:37:01.058Z,987
2023-05-10T23:47:39.853Z,987
2023-05-10T23:58:17.551Z,987
